Decoded Metar for YABA ( in ) (IATA:) | Meteo·Mobile Aviation Weather
aviador You're here:

YABA Decoded Metar

in
Report Time2019-07-22 01:30:00
UTC Time2019-07-22 01:42:06
Flight Rules mvfr MVFR
Wind250° at 11 kt
W.Decomp.*RWY 23: 10.3 kt HW 3.8 kt RCW
RWY 32: 3.8 kt HW 10.3 kt LCW
Visibility5000 m
Phenomena:Light Shower Rain
Clouds:Scattered 030 Hf
Broken 050 Hf
Expected CloudBase > 1,600 ft AGL from Temp-Dew spread
Ceiling5,000 ft
Temp12°C
Dew Point08°C (77% RH)
AAT7.6°C
QNH1017 hPa
Raw Report
SPECI YABA 220130Z 25011KT 5000 -SHRA SCT030 BKN050 12/08 Q1017=

Extra information for YABA:More info

Social comments